sensor_id;sensor_type;location;lat;lon;timestamp;temperature;humidity
64987;DHT22;67903;52.108;9.358;2023-03-19T00:02:05;8.80;87.20
64987;DHT22;67903;52.108;9.358;2023-03-19T00:04:44;8.80;87.30
64987;DHT22;67903;52.108;9.358;2023-03-19T00:07:11;8.60;87.30
64987;DHT22;67903;52.108;9.358;2023-03-19T00:09:38;8.60;87.60
64987;DHT22;67903;52.108;9.358;2023-03-19T00:12:05;8.60;87.70
64987;DHT22;67903;52.108;9.358;2023-03-19T00:14:32;8.60;87.80
64987;DHT22;67903;52.108;9.358;2023-03-19T00:16:59;8.50;88.00
64987;DHT22;67903;52.108;9.358;2023-03-19T00:19:26;8.50;87.80
64987;DHT22;67903;52.108;9.358;2023-03-19T00:21:53;8.50;88.00
64987;DHT22;67903;52.108;9.358;2023-03-19T00:24:21;8.50;88.20
64987;DHT22;67903;52.108;9.358;2023-03-19T00:26:48;8.50;88.40
64987;DHT22;67903;52.108;9.358;2023-03-19T00:29:15;8.50;88.00
64987;DHT22;67903;52.108;9.358;2023-03-19T00:31:42;8.40;88.20
64987;DHT22;67903;52.108;9.358;2023-03-19T00:34:09;8.40;88.00
64987;DHT22;67903;52.108;9.358;2023-03-19T00:36:36;8.40;88.00
64987;DHT22;67903;52.108;9.358;2023-03-19T00:39:03;8.30;87.80
64987;DHT22;67903;52.108;9.358;2023-03-19T00:41:32;8.30;87.90
64987;DHT22;67903;52.108;9.358;2023-03-19T00:43:59;8.30;88.00
64987;DHT22;67903;52.108;9.358;2023-03-19T00:46:28;8.30;88.00
64987;DHT22;67903;52.108;9.358;2023-03-19T00:48:55;8.20;88.00
64987;DHT22;67903;52.108;9.358;2023-03-19T00:51:24;8.20;87.90
64987;DHT22;67903;52.108;9.358;2023-03-19T00:53:51;8.20;87.80
64987;DHT22;67903;52.108;9.358;2023-03-19T00:56:18;8.10;87.90
64987;DHT22;67903;52.108;9.358;2023-03-19T00:58:46;8.10;87.90
64987;DHT22;67903;52.108;9.358;2023-03-19T01:01:16;8.10;88.00
64987;DHT22;67903;52.108;9.358;2023-03-19T01:03:44;8.00;88.30
64987;DHT22;67903;52.108;9.358;2023-03-19T01:06:12;8.00;88.40
64987;DHT22;67903;52.108;9.358;2023-03-19T01:08:39;8.00;88.70
64987;DHT22;67903;52.108;9.358;2023-03-19T01:11:12;7.90;88.70
64987;DHT22;67903;52.108;9.358;2023-03-19T01:13:40;7.90;88.90
64987;DHT22;67903;52.108;9.358;2023-03-19T01:16:08;7.80;89.00
64987;DHT22;67903;52.108;9.358;2023-03-19T01:18:35;7.80;89.10
64987;DHT22;67903;52.108;9.358;2023-03-19T01:21:02;7.80;89.10
64987;DHT22;67903;52.108;9.358;2023-03-19T01:23:30;7.70;89.20
64987;DHT22;67903;52.108;9.358;2023-03-19T01:25:57;7.60;89.30
64987;DHT22;67903;52.108;9.358;2023-03-19T01:28:26;7.60;89.40
64987;DHT22;67903;52.108;9.358;2023-03-19T01:30:57;7.60;89.60
64987;DHT22;67903;52.108;9.358;2023-03-19T01:33:44;7.50;89.60
64987;DHT22;67903;52.108;9.358;2023-03-19T01:36:30;7.50;89.70
64987;DHT22;67903;52.108;9.358;2023-03-19T01:39:00;7.50;89.80
64987;DHT22;67903;52.108;9.358;2023-03-19T01:41:27;7.50;89.70
64987;DHT22;67903;52.108;9.358;2023-03-19T01:44:01;7.50;89.90
64987;DHT22;67903;52.108;9.358;2023-03-19T01:46:38;7.50;89.70
64987;DHT22;67903;52.108;9.358;2023-03-19T01:49:33;7.50;89.60
64987;DHT22;67903;52.108;9.358;2023-03-19T01:52:17;7.50;89.50
64987;DHT22;67903;52.108;9.358;2023-03-19T01:55:01;7.40;89.50
64987;DHT22;67903;52.108;9.358;2023-03-19T01:57:47;7.40;89.50
64987;DHT22;67903;52.108;9.358;2023-03-19T02:00:30;7.30;89.70
64987;DHT22;67903;52.108;9.358;2023-03-19T02:03:00;7.40;89.90
64987;DHT22;67903;52.108;9.358;2023-03-19T02:05:35;7.30;89.90
64987;DHT22;67903;52.108;9.358;2023-03-19T02:08:09;7.20;89.80
64987;DHT22;67903;52.108;9.358;2023-03-19T02:10:38;7.20;89.80
64987;DHT22;67903;52.108;9.358;2023-03-19T02:13:06;7.20;90.00
64987;DHT22;67903;52.108;9.358;2023-03-19T02:15:33;7.20;89.90
64987;DHT22;67903;52.108;9.358;2023-03-19T02:18:00;7.20;89.80
64987;DHT22;67903;52.108;9.358;2023-03-19T02:20:43;7.10;89.80
64987;DHT22;67903;52.108;9.358;2023-03-19T02:23:40;7.10;90.00
64987;DHT22;67903;52.108;9.358;2023-03-19T02:26:15;7.10;90.00
64987;DHT22;67903;52.108;9.358;2023-03-19T02:28:47;7.00;90.00
64987;DHT22;67903;52.108;9.358;2023-03-19T02:31:20;7.00;89.80
64987;DHT22;67903;52.108;9.358;2023-03-19T02:33:59;7.00;89.80
64987;DHT22;67903;52.108;9.358;2023-03-19T02:36:36;7.00;89.80
64987;DHT22;67903;52.108;9.358;2023-03-19T02:39:09;6.90;89.80
64987;DHT22;67903;52.108;9.358;2023-03-19T02:41:40;6.90;89.80
64987;DHT22;67903;52.108;9.358;2023-03-19T02:44:09;6.90;90.00
64987;DHT22;67903;52.108;9.358;2023-03-19T02:46:37;6.90;90.10
64987;DHT22;67903;52.108;9.358;2023-03-19T02:49:04;6.90;90.20
64987;DHT22;67903;52.108;9.358;2023-03-19T02:51:31;6.90;90.20
64987;DHT22;67903;52.108;9.358;2023-03-19T02:53:58;7.00;90.10
64987;DHT22;67903;52.108;9.358;2023-03-19T02:56:26;7.00;90.10
64987;DHT22;67903;52.108;9.358;2023-03-19T02:58:53;7.00;90.00
64987;DHT22;67903;52.108;9.358;2023-03-19T03:01:20;7.00;89.90
64987;DHT22;67903;52.108;9.358;2023-03-19T03:03:47;7.00;90.00
64987;DHT22;67903;52.108;9.358;2023-03-19T03:06:14;6.90;90.00
64987;DHT22;67903;52.108;9.358;2023-03-19T03:08:41;6.90;90.00
64987;DHT22;67903;52.108;9.358;2023-03-19T03:11:08;6.90;89.80
64987;DHT22;67903;52.108;9.358;2023-03-19T03:13:35;6.90;89.90
64987;DHT22;67903;52.108;9.358;2023-03-19T03:16:02;6.80;89.80
64987;DHT22;67903;52.108;9.358;2023-03-19T03:18:29;6.90;89.90
64987;DHT22;67903;52.108;9.358;2023-03-19T03:20:56;6.90;89.80
64987;DHT22;67903;52.108;9.358;2023-03-19T03:23:23;6.90;89.60
64987;DHT22;67903;52.108;9.358;2023-03-19T03:25:50;6.90;89.50
64987;DHT22;67903;52.108;9.358;2023-03-19T03:28:17;6.90;89.50
64987;DHT22;67903;52.108;9.358;2023-03-19T03:30:45;6.90;89.60
64987;DHT22;67903;52.108;9.358;2023-03-19T03:33:13;6.90;89.70
64987;DHT22;67903;52.108;9.358;2023-03-19T03:35:39;6.80;89.60
64987;DHT22;67903;52.108;9.358;2023-03-19T03:38:06;6.80;89.60
64987;DHT22;67903;52.108;9.358;2023-03-19T03:40:33;6.70;89.60
64987;DHT22;67903;52.108;9.358;2023-03-19T03:43:01;6.70;89.80
64987;DHT22;67903;52.108;9.358;2023-03-19T03:45:29;6.60;89.80
64987;DHT22;67903;52.108;9.358;2023-03-19T03:47:56;6.70;90.20
64987;DHT22;67903;52.108;9.358;2023-03-19T03:50:23;6.70;90.20
64987;DHT22;67903;52.108;9.358;2023-03-19T03:52:52;6.80;90.00
64987;DHT22;67903;52.108;9.358;2023-03-19T03:55:19;6.80;89.70
64987;DHT22;67903;52.108;9.358;2023-03-19T03:57:46;6.90;89.60
64987;DHT22;67903;52.108;9.358;2023-03-19T04:00:13;6.80;89.50
64987;DHT22;67903;52.108;9.358;2023-03-19T04:02:42;6.80;89.70
64987;DHT22;67903;52.108;9.358;2023-03-19T04:05:12;6.80;89.90
64987;DHT22;67903;52.108;9.358;2023-03-19T04:07:39;6.80;90.10
64987;DHT22;67903;52.108;9.358;2023-03-19T04:10:07;6.80;90.20
64987;DHT22;67903;52.108;9.358;2023-03-19T04:12:38;6.90;90.30
64987;DHT22;67903;52.108;9.358;2023-03-19T04:15:08;6.90;90.20
64987;DHT22;67903;52.108;9.358;2023-03-19T04:17:36;6.90;90.30
64987;DHT22;67903;52.108;9.358;2023-03-19T04:20:05;7.00;90.20
64987;DHT22;67903;52.108;9.358;2023-03-19T04:22:32;7.00;89.70
64987;DHT22;67903;52.108;9.358;2023-03-19T04:24:59;7.10;89.30
64987;DHT22;67903;52.108;9.358;2023-03-19T04:27:26;7.20;88.90
64987;DHT22;67903;52.108;9.358;2023-03-19T04:29:53;7.20;88.70
64987;DHT22;67903;52.108;9.358;2023-03-19T04:32:20;7.20;88.60
64987;DHT22;67903;52.108;9.358;2023-03-19T04:34:47;7.20;88.50
64987;DHT22;67903;52.108;9.358;2023-03-19T04:37:14;7.20;88.40
64987;DHT22;67903;52.108;9.358;2023-03-19T04:39:47;7.20;88.20
64987;DHT22;67903;52.108;9.358;2023-03-19T04:42:14;7.20;88.30
64987;DHT22;67903;52.108;9.358;2023-03-19T04:45:02;7.20;88.40
64987;DHT22;67903;52.108;9.358;2023-03-19T04:47:28;7.20;88.20
64987;DHT22;67903;52.108;9.358;2023-03-19T04:49:58;7.10;88.20
64987;DHT22;67903;52.108;9.358;2023-03-19T04:52:25;7.10;88.20
64987;DHT22;67903;52.108;9.358;2023-03-19T04:54:53;7.10;88.10
64987;DHT22;67903;52.108;9.358;2023-03-19T04:57:20;7.10;88.00
64987;DHT22;67903;52.108;9.358;2023-03-19T04:59:49;7.10;87.80
64987;DHT22;67903;52.108;9.358;2023-03-19T05:02:17;7.00;87.80
64987;DHT22;67903;52.108;9.358;2023-03-19T05:04:44;7.10;87.80
64987;DHT22;67903;52.108;9.358;2023-03-19T05:07:13;7.10;87.50
64987;DHT22;67903;52.108;9.358;2023-03-19T05:09:41;7.00;87.30
64987;DHT22;67903;52.108;9.358;2023-03-19T05:12:10;7.00;87.20
64987;DHT22;67903;52.108;9.358;2023-03-19T05:14:43;7.00;87.20
64987;DHT22;67903;52.108;9.358;2023-03-19T05:17:31;7.00;87.30
64987;DHT22;67903;52.108;9.358;2023-03-19T05:20:13;7.00;87.30
64987;DHT22;67903;52.108;9.358;2023-03-19T05:22:51;7.00;87.20
64987;DHT22;67903;52.108;9.358;2023-03-19T05:25:20;7.00;87.30
64987;DHT22;67903;52.108;9.358;2023-03-19T05:27:47;7.00;87.50
64987;DHT22;67903;52.108;9.358;2023-03-19T05:30:20;7.00;87.50
64987;DHT22;67903;52.108;9.358;2023-03-19T05:33:04;7.00;87.40
64987;DHT22;67903;52.108;9.358;2023-03-19T05:35:40;7.00;87.20
64987;DHT22;67903;52.108;9.358;2023-03-19T05:38:14;7.00;87.20
64987;DHT22;67903;52.108;9.358;2023-03-19T05:40:45;7.00;87.10
64987;DHT22;67903;52.108;9.358;2023-03-19T05:43:21;7.00;87.00
64987;DHT22;67903;52.108;9.358;2023-03-19T05:45:50;7.00;87.10
64987;DHT22;67903;52.108;9.358;2023-03-19T05:48:21;7.00;87.10
64987;DHT22;67903;52.108;9.358;2023-03-19T05:50:49;7.00;87.10
64987;DHT22;67903;52.108;9.358;2023-03-19T05:53:19;7.00;87.00
64987;DHT22;67903;52.108;9.358;2023-03-19T05:56:07;7.00;87.10
64987;DHT22;67903;52.108;9.358;2023-03-19T05:58:44;7.00;86.90
64987;DHT22;67903;52.108;9.358;2023-03-19T06:01:15;7.00;86.90
64987;DHT22;67903;52.108;9.358;2023-03-19T06:03:43;7.00;86.80
64987;DHT22;67903;52.108;9.358;2023-03-19T06:06:10;7.00;86.80
64987;DHT22;67903;52.108;9.358;2023-03-19T06:08:42;7.10;86.70
64987;DHT22;67903;52.108;9.358;2023-03-19T06:11:38;7.10;86.60
64987;DHT22;67903;52.108;9.358;2023-03-19T06:14:24;7.20;86.60
64987;DHT22;67903;52.108;9.358;2023-03-19T06:17:14;7.20;86.40
64987;DHT22;67903;52.108;9.358;2023-03-19T06:19:41;7.40;86.30
64987;DHT22;67903;52.108;9.358;2023-03-19T06:22:07;7.40;86.10
64987;DHT22;67903;52.108;9.358;2023-03-19T06:24:34;7.50;86.10
64987;DHT22;67903;52.108;9.358;2023-03-19T06:27:02;7.50;85.90
64987;DHT22;67903;52.108;9.358;2023-03-19T06:29:29;7.50;85.90
64987;DHT22;67903;52.108;9.358;2023-03-19T06:32:04;7.50;85.80
64987;DHT22;67903;52.108;9.358;2023-03-19T06:34:41;7.50;85.70
64987;DHT22;67903;52.108;9.358;2023-03-19T06:37:08;7.50;85.70
64987;DHT22;67903;52.108;9.358;2023-03-19T06:39:35;7.50;85.80
64987;DHT22;67903;52.108;9.358;2023-03-19T06:42:02;7.50;86.00
64987;DHT22;67903;52.108;9.358;2023-03-19T06:44:29;7.60;85.80
64987;DHT22;67903;52.108;9.358;2023-03-19T06:46:56;7.80;85.50
64987;DHT22;67903;52.108;9.358;2023-03-19T06:49:22;7.80;85.40
64987;DHT22;67903;52.108;9.358;2023-03-19T06:51:49;7.80;85.10
64987;DHT22;67903;52.108;9.358;2023-03-19T06:54:17;7.80;84.90
64987;DHT22;67903;52.108;9.358;2023-03-19T06:56:44;7.80;85.20
64987;DHT22;67903;52.108;9.358;2023-03-19T06:59:11;7.80;85.30
64987;DHT22;67903;52.108;9.358;2023-03-19T07:01:41;7.80;85.40
64987;DHT22;67903;52.108;9.358;2023-03-19T07:04:09;7.80;85.40
64987;DHT22;67903;52.108;9.358;2023-03-19T07:06:36;7.80;85.50
64987;DHT22;67903;52.108;9.358;2023-03-19T07:09:03;7.80;85.50
64987;DHT22;67903;52.108;9.358;2023-03-19T07:11:30;7.80;85.70
64987;DHT22;67903;52.108;9.358;2023-03-19T07:14:00;7.90;85.60
64987;DHT22;67903;52.108;9.358;2023-03-19T07:16:27;7.90;85.60
64987;DHT22;67903;52.108;9.358;2023-03-19T07:18:54;7.90;85.60
64987;DHT22;67903;52.108;9.358;2023-03-19T07:21:22;8.00;85.60
64987;DHT22;67903;52.108;9.358;2023-03-19T07:23:48;8.00;85.50
64987;DHT22;67903;52.108;9.358;2023-03-19T07:26:18;8.10;85.40
64987;DHT22;67903;52.108;9.358;2023-03-19T07:28:45;8.10;85.20
64987;DHT22;67903;52.108;9.358;2023-03-19T07:31:12;8.20;85.10
64987;DHT22;67903;52.108;9.358;2023-03-19T07:33:39;8.20;85.00
64987;DHT22;67903;52.108;9.358;2023-03-19T07:36:06;8.30;84.80
64987;DHT22;67903;52.108;9.358;2023-03-19T07:38:33;8.40;84.70
64987;DHT22;67903;52.108;9.358;2023-03-19T07:41:00;8.50;84.40
64987;DHT22;67903;52.108;9.358;2023-03-19T07:43:29;8.50;84.20
64987;DHT22;67903;52.108;9.358;2023-03-19T07:45:57;8.50;84.20
64987;DHT22;67903;52.108;9.358;2023-03-19T07:48:24;8.50;84.10
64987;DHT22;67903;52.108;9.358;2023-03-19T07:50:51;8.60;84.20
64987;DHT22;67903;52.108;9.358;2023-03-19T07:53:18;8.60;84.20
64987;DHT22;67903;52.108;9.358;2023-03-19T07:55:46;8.60;84.30
64987;DHT22;67903;52.108;9.358;2023-03-19T07:58:13;8.60;84.50
64987;DHT22;67903;52.108;9.358;2023-03-19T08:00:40;8.80;84.50
64987;DHT22;67903;52.108;9.358;2023-03-19T08:03:07;8.90;84.50
64987;DHT22;67903;52.108;9.358;2023-03-19T08:05:34;8.90;84.50
64987;DHT22;67903;52.108;9.358;2023-03-19T08:08:00;9.00;84.40
64987;DHT22;67903;52.108;9.358;2023-03-19T08:10:27;9.00;84.30
64987;DHT22;67903;52.108;9.358;2023-03-19T08:12:54;9.20;84.30
64987;DHT22;67903;52.108;9.358;2023-03-19T08:15:21;9.20;84.20
64987;DHT22;67903;52.108;9.358;2023-03-19T08:17:48;9.30;84.00
64987;DHT22;67903;52.108;9.358;2023-03-19T08:20:15;9.30;83.90
64987;DHT22;67903;52.108;9.358;2023-03-19T08:22:43;9.40;84.00
64987;DHT22;67903;52.108;9.358;2023-03-19T08:25:14;9.40;84.00
64987;DHT22;67903;52.108;9.358;2023-03-19T08:27:41;9.50;84.00
64987;DHT22;67903;52.108;9.358;2023-03-19T08:30:09;9.70;83.70
64987;DHT22;67903;52.108;9.358;2023-03-19T08:32:37;10.00;83.40
64987;DHT22;67903;52.108;9.358;2023-03-19T08:35:04;10.20;82.70
64987;DHT22;67903;52.108;9.358;2023-03-19T08:37:31;10.40;81.90
64987;DHT22;67903;52.108;9.358;2023-03-19T08:39:58;10.60;81.40
64987;DHT22;67903;52.108;9.358;2023-03-19T08:42:25;10.80;80.60
64987;DHT22;67903;52.108;9.358;2023-03-19T08:44:52;10.90;80.40
64987;DHT22;67903;52.108;9.358;2023-03-19T08:47:19;11.10;80.00
64987;DHT22;67903;52.108;9.358;2023-03-19T08:49:50;11.40;79.40
64987;DHT22;67903;52.108;9.358;2023-03-19T08:52:18;11.70;78.70
64987;DHT22;67903;52.108;9.358;2023-03-19T08:54:45;11.90;78.30
64987;DHT22;67903;52.108;9.358;2023-03-19T08:57:12;12.10;77.20
64987;DHT22;67903;52.108;9.358;2023-03-19T08:59:38;12.30;76.60
64987;DHT22;67903;52.108;9.358;2023-03-19T09:02:06;12.50;76.10
64987;DHT22;67903;52.108;9.358;2023-03-19T09:04:32;12.50;74.90
64987;DHT22;67903;52.108;9.358;2023-03-19T09:07:04;12.50;74.80
64987;DHT22;67903;52.108;9.358;2023-03-19T09:09:32;12.50;74.90
64987;DHT22;67903;52.108;9.358;2023-03-19T09:11:59;12.50;74.80
64987;DHT22;67903;52.108;9.358;2023-03-19T09:14:26;12.30;75.20
64987;DHT22;67903;52.108;9.358;2023-03-19T09:16:53;12.20;75.70
64987;DHT22;67903;52.108;9.358;2023-03-19T09:19:21;12.20;75.80
64987;DHT22;67903;52.108;9.358;2023-03-19T09:21:49;12.10;75.80
64987;DHT22;67903;52.108;9.358;2023-03-19T09:24:16;12.10;76.20
64987;DHT22;67903;52.108;9.358;2023-03-19T09:26:45;12.00;76.50
64987;DHT22;67903;52.108;9.358;2023-03-19T09:29:12;12.00;76.80
64987;DHT22;67903;52.108;9.358;2023-03-19T09:31:39;12.10;76.80
64987;DHT22;67903;52.108;9.358;2023-03-19T09:34:06;12.10;76.70
64987;DHT22;67903;52.108;9.358;2023-03-19T09:36:36;12.10;76.80
64987;DHT22;67903;52.108;9.358;2023-03-19T09:39:04;12.20;76.80
64987;DHT22;67903;52.108;9.358;2023-03-19T09:44:39;12.30;76.30
64987;DHT22;67903;52.108;9.358;2023-03-19T09:47:33;12.40;76.00
64987;DHT22;67903;52.108;9.358;2023-03-19T09:50:03;12.40;76.00
64987;DHT22;67903;52.108;9.358;2023-03-19T09:52:48;12.50;75.90
64987;DHT22;67903;52.108;9.358;2023-03-19T09:57:56;12.40;75.80
64987;DHT22;67903;52.108;9.358;2023-03-19T10:00:31;12.50;75.70
64987;DHT22;67903;52.108;9.358;2023-03-19T10:05:56;12.50;75.50
64987;DHT22;67903;52.108;9.358;2023-03-19T10:08:54;12.50;75.20
64987;DHT22;67903;52.108;9.358;2023-03-19T10:11:52;12.80;73.20
64987;DHT22;67903;52.108;9.358;2023-03-19T10:17:14;12.90;72.90
64987;DHT22;67903;52.108;9.358;2023-03-19T10:22:33;13.10;70.80
64987;DHT22;67903;52.108;9.358;2023-03-19T10:25:09;13.20;70.50
64987;DHT22;67903;52.108;9.358;2023-03-19T10:27:37;13.30;70.30
64987;DHT22;67903;52.108;9.358;2023-03-19T10:30:15;13.30;69.20
64987;DHT22;67903;52.108;9.358;2023-03-19T10:32:45;13.50;67.50
64987;DHT22;67903;52.108;9.358;2023-03-19T10:35:36;13.50;67.90
64987;DHT22;67903;52.108;9.358;2023-03-19T10:38:22;13.40;67.80
64987;DHT22;67903;52.108;9.358;2023-03-19T10:43:43;13.50;67.40
64987;DHT22;67903;52.108;9.358;2023-03-19T10:46:12;13.60;66.70
64987;DHT22;67903;52.108;9.358;2023-03-19T10:48:45;13.70;66.00
64987;DHT22;67903;52.108;9.358;2023-03-19T10:51:14;13.70;66.50
64987;DHT22;67903;52.108;9.358;2023-03-19T10:53:42;13.90;66.10
64987;DHT22;67903;52.108;9.358;2023-03-19T10:56:28;13.90;66.20
64987;DHT22;67903;52.108;9.358;2023-03-19T10:59:04;13.90;66.00
64987;DHT22;67903;52.108;9.358;2023-03-19T11:01:34;14.10;64.90
64987;DHT22;67903;52.108;9.358;2023-03-19T11:04:11;14.10;65.30
64987;DHT22;67903;52.108;9.358;2023-03-19T11:06:40;14.20;63.90
64987;DHT22;67903;52.108;9.358;2023-03-19T11:11:34;14.40;64.50
64987;DHT22;67903;52.108;9.358;2023-03-19T11:14:08;14.60;63.80
64987;DHT22;67903;52.108;9.358;2023-03-19T11:16:56;14.80;63.30
64987;DHT22;67903;52.108;9.358;2023-03-19T11:19:27;14.80;62.70
64987;DHT22;67903;52.108;9.358;2023-03-19T11:22:16;14.90;61.60
64987;DHT22;67903;52.108;9.358;2023-03-19T11:25:34;14.80;61.80
64987;DHT22;67903;52.108;9.358;2023-03-19T11:27:40;15.00;61.20
64987;DHT22;67903;52.108;9.358;2023-03-19T11:30:17;15.20;60.20
64987;DHT22;67903;52.108;9.358;2023-03-19T11:32:54;15.20;60.00
64987;DHT22;67903;52.108;9.358;2023-03-19T11:35:38;15.20;60.10
64987;DHT22;67903;52.108;9.358;2023-03-19T11:41:26;15.40;60.40
64987;DHT22;67903;52.108;9.358;2023-03-19T11:44:00;15.60;59.70
64987;DHT22;67903;52.108;9.358;2023-03-19T11:52:21;15.40;60.00
64987;DHT22;67903;52.108;9.358;2023-03-19T11:57:59;15.60;60.20
64987;DHT22;67903;52.108;9.358;2023-03-19T12:00:50;15.80;59.50
64987;DHT22;67903;52.108;9.358;2023-03-19T12:05:58;16.00;59.10
64987;DHT22;67903;52.108;9.358;2023-03-19T12:08:41;16.00;58.40
64987;DHT22;67903;52.108;9.358;2023-03-19T12:11:21;16.00;58.50
64987;DHT22;67903;52.108;9.358;2023-03-19T12:14:07;16.00;58.80
64987;DHT22;67903;52.108;9.358;2023-03-19T12:17:33;16.00;58.90
64987;DHT22;67903;52.108;9.358;2023-03-19T12:19:58;16.20;57.40
64987;DHT22;67903;52.108;9.358;2023-03-19T12:34:01;16.00;58.30
64987;DHT22;67903;52.108;9.358;2023-03-19T12:36:40;15.90;58.00
64987;DHT22;67903;52.108;9.358;2023-03-19T12:39:13;15.80;58.10
64987;DHT22;67903;52.108;9.358;2023-03-19T12:41:44;15.80;58.00
64987;DHT22;67903;52.108;9.358;2023-03-19T12:47:05;15.90;58.50
64987;DHT22;67903;52.108;9.358;2023-03-19T12:49:41;15.80;58.30
64987;DHT22;67903;52.108;9.358;2023-03-19T12:52:37;16.00;58.00
64987;DHT22;67903;52.108;9.358;2023-03-19T12:57:45;16.40;57.10
64987;DHT22;67903;52.108;9.358;2023-03-19T13:00:44;16.10;57.50
64987;DHT22;67903;52.108;9.358;2023-03-19T13:06:07;16.20;58.00
64987;DHT22;67903;52.108;9.358;2023-03-19T13:14:20;16.40;58.00
64987;DHT22;67903;52.108;9.358;2023-03-19T13:16:58;16.60;57.60
64987;DHT22;67903;52.108;9.358;2023-03-19T13:19:44;16.40;57.00
64987;DHT22;67903;52.108;9.358;2023-03-19T13:22:16;16.20;56.40
64987;DHT22;67903;52.108;9.358;2023-03-19T13:24:45;16.00;56.30
64987;DHT22;67903;52.108;9.358;2023-03-19T13:27:25;16.00;58.40
64987;DHT22;67903;52.108;9.358;2023-03-19T13:30:16;15.80;59.50
64987;DHT22;67903;52.108;9.358;2023-03-19T13:32:49;15.60;60.00
64987;DHT22;67903;52.108;9.358;2023-03-19T13:35:30;15.60;60.40
64987;DHT22;67903;52.108;9.358;2023-03-19T13:40:51;15.30;61.40
64987;DHT22;67903;52.108;9.358;2023-03-19T13:59:26;15.40;61.60
64987;DHT22;67903;52.108;9.358;2023-03-19T14:01:54;15.30;61.90
64987;DHT22;67903;52.108;9.358;2023-03-19T14:07:08;15.50;61.10
64987;DHT22;67903;52.108;9.358;2023-03-19T14:09:40;15.40;61.30
64987;DHT22;67903;52.108;9.358;2023-03-19T14:17:33;15.40;61.60
64987;DHT22;67903;52.108;9.358;2023-03-19T14:20:22;15.60;61.50
64987;DHT22;67903;52.108;9.358;2023-03-19T14:25:55;15.60;60.50
64987;DHT22;67903;52.108;9.358;2023-03-19T14:28:46;15.50;61.00
64987;DHT22;67903;52.108;9.358;2023-03-19T14:34:01;15.50;60.80
64987;DHT22;67903;52.108;9.358;2023-03-19T14:36:29;15.70;60.40
64987;DHT22;67903;52.108;9.358;2023-03-19T14:38:59;16.00;60.30
64987;DHT22;67903;52.108;9.358;2023-03-19T14:41:32;16.10;59.70
64987;DHT22;67903;52.108;9.358;2023-03-19T14:44:28;16.00;59.60
64987;DHT22;67903;52.108;9.358;2023-03-19T14:52:28;15.80;59.50
64987;DHT22;67903;52.108;9.358;2023-03-19T14:55:01;15.60;60.20
64987;DHT22;67903;52.108;9.358;2023-03-19T14:57:31;15.60;60.50
64987;DHT22;67903;52.108;9.358;2023-03-19T15:00:03;15.50;60.80
64987;DHT22;67903;52.108;9.358;2023-03-19T15:02:40;15.50;61.00
64987;DHT22;67903;52.108;9.358;2023-03-19T15:07:43;15.60;60.30
64987;DHT22;67903;52.108;9.358;2023-03-19T15:10:18;15.80;60.00
64987;DHT22;67903;52.108;9.358;2023-03-19T15:13:04;15.80;59.90
64987;DHT22;67903;52.108;9.358;2023-03-19T15:18:23;16.10;58.90
64987;DHT22;67903;52.108;9.358;2023-03-19T15:20:52;16.00;59.50
64987;DHT22;67903;52.108;9.358;2023-03-19T15:23:29;16.00;59.60
64987;DHT22;67903;52.108;9.358;2023-03-19T15:25:58;15.70;60.30
64987;DHT22;67903;52.108;9.358;2023-03-19T15:28:32;15.50;61.20
64987;DHT22;67903;52.108;9.358;2023-03-19T15:31:05;15.30;61.30
64987;DHT22;67903;52.108;9.358;2023-03-19T15:33:52;15.30;61.80
64987;DHT22;67903;52.108;9.358;2023-03-19T15:36:30;15.30;61.90
64987;DHT22;67903;52.108;9.358;2023-03-19T15:39:02;15.20;62.20
64987;DHT22;67903;52.108;9.358;2023-03-19T15:41:32;15.30;61.90
64987;DHT22;67903;52.108;9.358;2023-03-19T15:44:03;15.30;62.00
64987;DHT22;67903;52.108;9.358;2023-03-19T15:46:33;15.40;62.00
64987;DHT22;67903;52.108;9.358;2023-03-19T15:49:15;15.40;61.80
64987;DHT22;67903;52.108;9.358;2023-03-19T15:51:47;15.40;61.90
64987;DHT22;67903;52.108;9.358;2023-03-19T15:54:17;15.30;62.10
64987;DHT22;67903;52.108;9.358;2023-03-19T15:56:47;15.20;62.20
64987;DHT22;67903;52.108;9.358;2023-03-19T15:59:16;15.20;61.70
64987;DHT22;67903;52.108;9.358;2023-03-19T16:01:44;15.10;61.10
64987;DHT22;67903;52.108;9.358;2023-03-19T16:04:23;15.00;61.70
64987;DHT22;67903;52.108;9.358;2023-03-19T16:06:52;14.80;62.00
64987;DHT22;67903;52.108;9.358;2023-03-19T16:09:32;14.80;62.20
64987;DHT22;67903;52.108;9.358;2023-03-19T16:12:00;14.80;62.30
64987;DHT22;67903;52.108;9.358;2023-03-19T16:17:08;14.50;62.80
64987;DHT22;67903;52.108;9.358;2023-03-19T16:19:37;14.40;63.30
64987;DHT22;67903;52.108;9.358;2023-03-19T16:22:13;14.40;63.70
64987;DHT22;67903;52.108;9.358;2023-03-19T16:24:43;14.30;64.00
64987;DHT22;67903;52.108;9.358;2023-03-19T16:27:16;14.30;64.30
64987;DHT22;67903;52.108;9.358;2023-03-19T16:29:55;14.20;64.80
64987;DHT22;67903;52.108;9.358;2023-03-19T16:32:27;14.10;65.10
64987;DHT22;67903;52.108;9.358;2023-03-19T16:34:56;14.10;65.40
64987;DHT22;67903;52.108;9.358;2023-03-19T16:37:53;14.00;65.70
64987;DHT22;67903;52.108;9.358;2023-03-19T16:47:57;13.90;67.50
64987;DHT22;67903;52.108;9.358;2023-03-19T16:52:57;13.90;67.90
64987;DHT22;67903;52.108;9.358;2023-03-19T16:55:26;13.80;68.10
64987;DHT22;67903;52.108;9.358;2023-03-19T16:57:58;13.70;68.30
64987;DHT22;67903;52.108;9.358;2023-03-19T17:00:27;13.80;68.10
64987;DHT22;67903;52.108;9.358;2023-03-19T17:02:58;13.80;68.20
64987;DHT22;67903;52.108;9.358;2023-03-19T17:05:27;13.70;68.20
64987;DHT22;67903;52.108;9.358;2023-03-19T17:07:54;13.80;66.80
64987;DHT22;67903;52.108;9.358;2023-03-19T17:10:23;13.80;66.80
64987;DHT22;67903;52.108;9.358;2023-03-19T17:12:53;13.70;67.10
64987;DHT22;67903;52.108;9.358;2023-03-19T17:15:26;13.60;67.40
64987;DHT22;67903;52.108;9.358;2023-03-19T17:17:54;13.60;67.70
64987;DHT22;67903;52.108;9.358;2023-03-19T17:20:27;13.60;68.00
64987;DHT22;67903;52.108;9.358;2023-03-19T17:22:55;13.50;68.20
64987;DHT22;67903;52.108;9.358;2023-03-19T17:25:22;13.40;68.60
64987;DHT22;67903;52.108;9.358;2023-03-19T17:27:49;13.30;69.00
64987;DHT22;67903;52.108;9.358;2023-03-19T17:30:16;13.30;68.90
64987;DHT22;67903;52.108;9.358;2023-03-19T17:32:46;13.30;69.20
64987;DHT22;67903;52.108;9.358;2023-03-19T17:35:15;13.30;69.20
64987;DHT22;67903;52.108;9.358;2023-03-19T17:37:43;13.40;68.90
64987;DHT22;67903;52.108;9.358;2023-03-19T17:40:24;13.30;69.10
64987;DHT22;67903;52.108;9.358;2023-03-19T17:42:55;13.30;69.40
64987;DHT22;67903;52.108;9.358;2023-03-19T17:45:25;13.10;70.00
64987;DHT22;67903;52.108;9.358;2023-03-19T17:47:54;13.10;70.50
64987;DHT22;67903;52.108;9.358;2023-03-19T17:50:27;13.00;70.60
64987;DHT22;67903;52.108;9.358;2023-03-19T17:52:57;13.00;70.80
64987;DHT22;67903;52.108;9.358;2023-03-19T17:55:27;12.90;71.20
64987;DHT22;67903;52.108;9.358;2023-03-19T17:57:54;12.90;71.80
64987;DHT22;67903;52.108;9.358;2023-03-19T18:00:23;12.80;72.50
64987;DHT22;67903;52.108;9.358;2023-03-19T18:02:52;12.70;73.10
64987;DHT22;67903;52.108;9.358;2023-03-19T18:05:21;12.70;73.30